createdAt,value
2016-08-29T00:00:50.802Z,18.95
2016-08-29T00:01:50.185Z,18.83
2016-08-29T00:02:50.184Z,18.97
2016-08-29T00:03:50.177Z,18.94
2016-08-29T00:04:50.873Z,18.98
2016-08-29T00:05:50.153Z,18.91
2016-08-29T00:06:50.147Z,18.95
2016-08-29T00:07:50.188Z,19.01
2016-08-29T00:08:50.131Z,18.97
2016-08-29T00:09:50.170Z,18.99
2016-08-29T00:10:50.816Z,18.99
2016-08-29T00:11:50.107Z,18.95
2016-08-29T00:12:50.111Z,18.91
2016-08-29T00:13:50.088Z,18.99
2016-08-29T00:14:50.074Z,19.01
2016-08-29T00:15:50.786Z,18.9
2016-08-29T00:16:50.059Z,18.92
2016-08-29T00:17:50.811Z,18.95
2016-08-29T00:18:50.049Z,18.86
2016-08-29T00:19:50.035Z,18.86
2016-08-29T00:20:50.736Z,18.9
2016-08-29T00:21:50.735Z,18.91
2016-08-29T00:22:50.012Z,18.79
2016-08-29T00:23:50.003Z,18.79
2016-08-29T00:24:49.999Z,18.82
2016-08-29T00:25:49.985Z,18.8
2016-08-29T00:26:50.684Z,18.77
2016-08-29T00:27:49.972Z,18.76
2016-08-29T00:28:50.678Z,18.74
2016-08-29T00:29:51.368Z,18.79
2016-08-29T00:30:49.949Z,18.79
2016-08-29T00:31:49.936Z,18.77
2016-08-29T00:32:50.643Z,18.8
2016-08-29T00:33:49.921Z,18.76
2016-08-29T00:34:49.912Z,18.67
2016-08-29T00:35:49.903Z,18.73
2016-08-29T00:36:49.896Z,18.67
2016-08-29T00:37:49.894Z,18.64
2016-08-29T00:38:50.591Z,18.65
2016-08-29T00:39:50.578Z,18.72
2016-08-29T00:40:50.574Z,18.55
2016-08-29T00:41:49.856Z,18.58
2016-08-29T00:42:49.842Z,18.72
2016-08-29T00:43:49.839Z,18.54
2016-08-29T00:44:49.828Z,18.55
2016-08-29T00:45:49.819Z,18.54
2016-08-29T00:46:49.820Z,18.57
2016-08-29T00:47:51.213Z,18.58
2016-08-29T00:48:49.791Z,18.46
2016-08-29T00:49:49.798Z,18.5
2016-08-29T00:50:49.776Z,18.49
2016-08-29T00:51:49.770Z,18.43
2016-08-29T00:52:49.763Z,18.49
2016-08-29T00:53:49.751Z,18.49
2016-08-29T00:54:49.743Z,18.42
2016-08-29T00:55:49.737Z,18.4
2016-08-29T00:56:50.431Z,18.42
2016-08-29T00:57:49.715Z,18.39
2016-08-29T00:58:49.714Z,18.43
2016-08-29T00:59:49.752Z,18.42
2016-08-29T01:00:49.690Z,18.4
2016-08-29T01:01:49.686Z,18.4
2016-08-29T01:02:49.673Z,18.39
2016-08-29T01:03:49.671Z,18.4
2016-08-29T01:04:49.663Z,18.39
2016-08-29T01:05:49.650Z,18.36
2016-08-29T01:06:49.641Z,18.25
2016-08-29T01:07:49.636Z,18.31
2016-08-29T01:08:49.626Z,18.25
2016-08-29T01:09:50.324Z,18.25
2016-08-29T01:10:49.614Z,18.21
2016-08-29T01:11:49.603Z,18.18
2016-08-29T01:12:49.592Z,18.15
2016-08-29T01:13:50.291Z,18.17
2016-08-29T01:14:49.574Z,18.19
2016-08-29T01:15:50.280Z,18.21
2016-08-29T01:16:49.565Z,18.13
2016-08-29T01:17:49.549Z,18.12
2016-08-29T01:18:49.540Z,18.15
2016-08-29T01:19:49.530Z,18.13
2016-08-29T01:20:49.531Z,18.12
2016-08-29T01:21:49.513Z,18.09
2016-08-29T01:22:49.503Z,18.07
2016-08-29T01:23:49.497Z,18.09
2016-08-29T01:24:50.193Z,18.09
2016-08-29T01:25:49.476Z,18.12
2016-08-29T01:26:49.474Z,18
2016-08-29T01:27:49.470Z,18.02
2016-08-29T01:28:49.451Z,18.02
2016-08-29T01:29:49.459Z,18.02
2016-08-29T01:30:49.442Z,18.02
2016-08-29T01:31:49.425Z,17.95
2016-08-29T01:32:49.419Z,17.97
2016-08-29T01:33:49.413Z,17.92
2016-08-29T01:34:49.400Z,17.92
2016-08-29T01:35:49.397Z,17.91
2016-08-29T01:36:49.385Z,17.95
2016-08-29T01:37:49.427Z,17.99
2016-08-29T01:38:49.375Z,17.92
2016-08-29T01:39:49.362Z,17.94
2016-08-29T01:40:49.353Z,17.91
2016-08-29T01:41:49.341Z,17.89
2016-08-29T01:42:49.333Z,17.82
2016-08-29T01:43:49.326Z,17.82
2016-08-29T01:44:49.314Z,17.85
2016-08-29T01:45:49.312Z,17.84
2016-08-29T01:46:49.306Z,17.85
2016-08-29T01:47:49.290Z,17.82
2016-08-29T01:48:49.989Z,17.81
2016-08-29T01:49:49.277Z,17.84
2016-08-29T01:50:49.259Z,17.84
2016-08-29T01:51:49.262Z,17.82
2016-08-29T01:52:49.950Z,17.84
2016-08-29T01:53:49.240Z,17.78
2016-08-29T01:54:49.239Z,17.78
2016-08-29T01:55:49.219Z,17.78
2016-08-29T01:56:49.915Z,17.84
2016-08-29T01:57:49.202Z,17.84
2016-08-29T01:58:49.902Z,17.79
2016-08-29T01:59:49.232Z,17.84
2016-08-29T02:00:49.193Z,17.79
2016-08-29T02:01:49.167Z,17.82
2016-08-29T02:02:49.158Z,17.78
2016-08-29T02:03:49.146Z,17.81
2016-08-29T02:04:49.139Z,17.76
2016-08-29T02:05:50.556Z,17.78
2016-08-29T02:06:49.122Z,17.81
2016-08-29T02:07:49.114Z,17.79
2016-08-29T02:08:49.112Z,17.73
2016-08-29T02:09:49.100Z,17.79
2016-08-29T02:10:50.501Z,17.73
2016-08-29T02:11:49.084Z,17.74
2016-08-29T02:12:49.068Z,17.7
2016-08-29T02:13:49.080Z,17.81
2016-08-29T02:14:49.048Z,17.7
2016-08-29T02:15:49.059Z,17.74
2016-08-29T02:16:49.034Z,17.71
2016-08-29T02:17:49.745Z,17.64
2016-08-29T02:18:49.725Z,17.73
2016-08-29T02:19:49.019Z,17.62
2016-08-29T02:20:49.000Z,17.64
2016-08-29T02:21:49.714Z,17.59
2016-08-29T02:22:48.989Z,17.7
2016-08-29T02:23:49.720Z,17.67
2016-08-29T02:24:48.967Z,17.7
2016-08-29T02:25:48.955Z,17.67
2016-08-29T02:26:48.995Z,17.71
2016-08-29T02:27:48.940Z,17.7
2016-08-29T02:28:48.930Z,17.69
2016-08-29T02:29:48.939Z,17.69
2016-08-29T02:30:48.907Z,17.71
2016-08-29T02:31:48.920Z,17.78
2016-08-29T02:32:49.599Z,17.71
2016-08-29T02:33:49.607Z,17.7
2016-08-29T02:34:49.584Z,17.67
2016-08-29T02:35:49.577Z,17.79
2016-08-29T02:36:48.855Z,17.84
2016-08-29T02:37:48.870Z,17.84
2016-08-29T02:38:48.835Z,17.76
2016-08-29T02:39:48.834Z,17.87
2016-08-29T02:40:48.885Z,17.88
2016-08-29T02:41:48.823Z,17.89
2016-08-29T02:42:48.802Z,18.03
2016-08-29T02:43:50.211Z,17.95
2016-08-29T02:44:48.783Z,17.99
2016-08-29T02:45:48.778Z,17.95
2016-08-29T02:46:49.477Z,17.97
2016-08-29T02:47:48.757Z,18.07
2016-08-29T02:48:48.750Z,18
2016-08-29T02:49:48.752Z,18.09
2016-08-29T02:50:48.729Z,18.12
2016-08-29T02:51:49.427Z,18.1
2016-08-29T02:52:48.716Z,18.09
2016-08-29T02:53:48.711Z,18.09
2016-08-29T02:54:48.693Z,18.1
2016-08-29T02:55:48.691Z,18.13
2016-08-29T02:56:48.689Z,18.15
2016-08-29T02:57:48.667Z,18.17
2016-08-29T02:58:50.203Z,18.13
2016-08-29T02:59:49.372Z,18.15
2016-08-29T03:00:48.642Z,18.18
2016-08-29T03:01:50.056Z,18.18
2016-08-29T03:02:48.627Z,18.15
2016-08-29T03:03:48.621Z,18.19
2016-08-29T03:04:48.610Z,18.18
2016-08-29T03:05:48.610Z,18.22
2016-08-29T03:06:49.303Z,18.27
2016-08-29T03:07:48.603Z,18.22
2016-08-29T03:08:48.575Z,18.33
2016-08-29T03:09:48.615Z,18.25
2016-08-29T03:10:48.558Z,18.28
2016-08-29T03:11:48.549Z,18.29
2016-08-29T03:12:48.575Z,18.33
2016-08-29T03:13:48.530Z,18.36
2016-08-29T03:14:48.533Z,18.36
2016-08-29T03:15:48.525Z,18.4
2016-08-29T03:16:49.213Z,18.4
2016-08-29T03:17:49.200Z,18.36
2016-08-29T03:18:48.490Z,18.46
2016-08-29T03:19:48.540Z,18.46
2016-08-29T03:20:48.470Z,18.44
2016-08-29T03:21:48.474Z,18.46
2016-08-29T03:22:49.159Z,18.43
2016-08-29T03:23:48.441Z,18.49
2016-08-29T03:24:48.438Z,18.49
2016-08-29T03:25:48.430Z,18.52
2016-08-29T03:26:48.417Z,18.5
2016-08-29T03:27:49.140Z,18.57
2016-08-29T03:28:49.110Z,18.57
2016-08-29T03:29:48.395Z,18.58
2016-08-29T03:30:48.408Z,18.57
2016-08-29T03:31:48.378Z,18.58
2016-08-29T03:32:48.379Z,18.59
2016-08-29T03:33:49.068Z,18.52
2016-08-29T03:34:49.056Z,18.58
2016-08-29T03:35:48.344Z,18.57
2016-08-29T03:36:48.333Z,18.52
2016-08-29T03:37:48.330Z,18.57
2016-08-29T03:38:48.314Z,18.62
2016-08-29T03:39:48.314Z,18.58
2016-08-29T03:40:48.298Z,18.5
2016-08-29T03:41:48.289Z,18.5
2016-08-29T03:42:48.279Z,18.59
2016-08-29T03:43:48.983Z,18.62
2016-08-29T03:44:48.973Z,18.54
2016-08-29T03:45:48.966Z,18.52
2016-08-29T03:46:48.954Z,18.62
2016-08-29T03:47:48.956Z,18.57
2016-08-29T03:48:48.936Z,18.55
2016-08-29T03:49:48.225Z,18.5
2016-08-29T03:50:48.212Z,18.59
2016-08-29T03:51:48.209Z,18.52
2016-08-29T03:52:49.614Z,18.54
2016-08-29T03:53:48.185Z,18.57
2016-08-29T03:54:48.179Z,18.5
2016-08-29T03:55:48.183Z,18.57
2016-08-29T03:56:48.865Z,18.58
2016-08-29T03:57:48.880Z,18.55
2016-08-29T03:58:48.850Z,18.61
2016-08-29T03:59:48.134Z,18.58
2016-08-29T04:00:48.123Z,18.54
2016-08-29T04:01:48.322Z,18.67
2016-08-29T04:02:48.111Z,18.58
2016-08-29T04:03:48.096Z,18.64
2016-08-29T04:04:48.093Z,18.68
2016-08-29T04:05:48.803Z,18.55
2016-08-29T04:06:48.789Z,18.57
2016-08-29T04:07:48.796Z,18.62
2016-08-29T04:08:48.064Z,18.7
2016-08-29T04:09:48.759Z,18.67
2016-08-29T04:10:48.045Z,18.62
2016-08-29T04:11:48.081Z,18.62
2016-08-29T04:12:48.731Z,18.64
2016-08-29T04:13:48.722Z,18.64
2016-08-29T04:14:48.006Z,18.5
2016-08-29T04:15:47.994Z,18.57
2016-08-29T04:16:47.995Z,18.64
2016-08-29T04:17:47.983Z,18.7
2016-08-29T04:18:48.695Z,18.67
2016-08-29T04:19:47.961Z,18.49
2016-08-29T04:20:47.957Z,18.67
2016-08-29T04:21:47.943Z,18.61
2016-08-29T04:22:47.940Z,18.54
2016-08-29T04:23:48.648Z,18.59
2016-08-29T04:24:48.693Z,18.58
2016-08-29T04:25:48.628Z,18.58
2016-08-29T04:26:48.612Z,18.68
2016-08-29T04:27:49.310Z,18.67
2016-08-29T04:28:47.889Z,18.62
2016-08-29T04:29:48.581Z,18.68
2016-08-29T04:30:47.863Z,18.7
2016-08-29T04:31:47.858Z,18.74
2016-08-29T04:32:48.561Z,18.64
2016-08-29T04:33:48.546Z,18.59
2016-08-29T04:34:47.835Z,18.64
2016-08-29T04:35:48.553Z,18.68
2016-08-29T04:36:47.815Z,18.57
2016-08-29T04:37:47.871Z,18.68
2016-08-29T04:38:49.244Z,18.65
2016-08-29T04:39:47.791Z,18.61
2016-08-29T04:40:47.778Z,18.62
2016-08-29T04:41:47.778Z,18.64
2016-08-29T04:42:47.763Z,18.68
2016-08-29T04:43:47.755Z,18.61
2016-08-29T04:44:47.746Z,18.65
2016-08-29T04:45:47.739Z,18.68
2016-08-29T04:46:47.729Z,18.57
2016-08-29T04:47:47.755Z,18.59
2016-08-29T04:48:47.728Z,18.64
2016-08-29T04:49:47.716Z,18.61
2016-08-29T04:50:47.701Z,18.58
2016-08-29T04:51:48.401Z,18.7
2016-08-29T04:52:47.691Z,18.61
2016-08-29T04:53:47.667Z,18.64
2016-08-29T04:54:47.657Z,18.59
2016-08-29T04:55:49.068Z,18.57
2016-08-29T04:56:48.354Z,18.59
2016-08-29T04:57:48.344Z,18.62
2016-08-29T04:58:48.341Z,18.61
2016-08-29T04:59:48.334Z,18.61
2016-08-29T05:00:48.698Z,18.65
2016-08-29T05:01:47.613Z,18.68
2016-08-29T05:02:47.591Z,18.61
2016-08-29T05:03:47.582Z,18.64
2016-08-29T05:04:48.282Z,18.65
2016-08-29T05:05:47.564Z,18.61
2016-08-29T05:06:47.612Z,18.68
2016-08-29T05:07:47.547Z,18.62
2016-08-29T05:08:47.534Z,18.67
2016-08-29T05:09:48.248Z,18.68
2016-08-29T05:10:47.524Z,18.7
2016-08-29T05:11:48.227Z,18.61
2016-08-29T05:12:47.509Z,18.61
2016-08-29T05:13:47.501Z,18.67
2016-08-29T05:14:48.216Z,18.64
2016-08-29T05:15:47.474Z,18.59
2016-08-29T05:16:47.468Z,18.68
2016-08-29T05:17:48.169Z,18.67
2016-08-29T05:18:47.454Z,18.57
2016-08-29T05:19:47.443Z,18.65
2016-08-29T05:20:47.435Z,18.61
2016-08-29T05:21:47.426Z,18.62
2016-08-29T05:22:47.417Z,18.58
2016-08-29T05:23:48.126Z,18.64
2016-08-29T05:24:47.399Z,18.72
2016-08-29T05:25:47.397Z,18.79
2016-08-29T05:26:48.091Z,18.79
2016-08-29T05:27:47.433Z,18.79
2016-08-29T05:28:47.366Z,18.77
2016-08-29T05:29:47.355Z,18.67
2016-08-29T05:30:47.350Z,18.72
2016-08-29T05:31:47.348Z,18.7
2016-08-29T05:32:47.333Z,18.73
2016-08-29T05:33:48.036Z,18.73
2016-08-29T05:34:48.020Z,18.74
2016-08-29T05:35:48.018Z,18.79
2016-08-29T05:36:47.296Z,18.82
2016-08-29T05:37:47.994Z,18.82
2016-08-29T05:38:47.983Z,18.8
2016-08-29T05:39:47.974Z,18.82
2016-08-29T05:40:47.262Z,18.82
2016-08-29T05:41:47.257Z,18.8
2016-08-29T05:42:48.002Z,18.82
2016-08-29T05:43:47.247Z,18.77
2016-08-29T05:44:47.935Z,18.79
2016-08-29T05:45:47.927Z,18.79
2016-08-29T05:46:47.212Z,18.72
2016-08-29T05:47:47.948Z,18.67
2016-08-29T05:48:47.915Z,18.61
2016-08-29T05:49:47.919Z,18.58
2016-08-29T05:50:47.899Z,18.58
2016-08-29T05:51:47.177Z,18.5
2016-08-29T05:52:47.869Z,18.4
2016-08-29T05:53:47.855Z,18.39
2016-08-29T05:54:47.146Z,18.29
2016-08-29T05:55:47.133Z,18.36
2016-08-29T05:56:47.126Z,18.36
2016-08-29T05:57:47.829Z,18.25
2016-08-29T05:58:47.108Z,18.34
2016-08-29T05:59:47.105Z,18.36
2016-08-29T06:00:47.142Z,18.27
2016-08-29T06:01:47.316Z,18.27
2016-08-29T06:02:47.780Z,18.36
2016-08-29T06:03:47.772Z,18.29
2016-08-29T06:04:47.767Z,18.21
2016-08-29T06:05:47.759Z,18.24
2016-08-29T06:06:47.743Z,18.27
2016-08-29T06:07:47.747Z,18.27
2016-08-29T06:08:47.021Z,18.29
2016-08-29T06:09:48.430Z,18.24
2016-08-29T06:10:47.000Z,18.36
2016-08-29T06:11:48.411Z,18.31
2016-08-29T06:12:47.701Z,18.31
2016-08-29T06:13:46.974Z,18.28
2016-08-29T06:14:46.971Z,18.37
2016-08-29T06:15:46.973Z,18.28
2016-08-29T06:16:47.658Z,18.27
2016-08-29T06:17:46.950Z,18.29
2016-08-29T06:18:46.954Z,18.37
2016-08-29T06:19:46.963Z,18.34
2016-08-29T06:20:46.975Z,18.4
2016-08-29T06:21:48.331Z,18.46
2016-08-29T06:22:46.904Z,18.4
2016-08-29T06:23:46.891Z,18.44
2016-08-29T06:24:47.593Z,18.37
2016-08-29T06:25:47.587Z,18.42
2016-08-29T06:26:47.573Z,18.39
2016-08-29T06:27:46.859Z,18.44
2016-08-29T06:28:46.852Z,18.43
2016-08-29T06:29:46.842Z,18.42
2016-08-29T06:30:47.544Z,18.44
2016-08-29T06:31:46.824Z,18.49
2016-08-29T06:32:47.532Z,18.49
2016-08-29T06:33:46.806Z,18.47
2016-08-29T06:34:46.798Z,18.43
2016-08-29T06:35:48.209Z,18.46
2016-08-29T06:36:46.790Z,18.46
2016-08-29T06:37:46.777Z,18.44
2016-08-29T06:38:46.768Z,18.5
2016-08-29T06:39:47.472Z,18.39
2016-08-29T06:40:47.475Z,18.5
2016-08-29T06:41:47.449Z,18.52
2016-08-29T06:42:47.443Z,18.5
2016-08-29T06:43:46.738Z,18.58
2016-08-29T06:44:46.717Z,18.57
2016-08-29T06:45:46.708Z,18.58
2016-08-29T06:46:46.710Z,18.57
2016-08-29T06:47:46.746Z,18.55
2016-08-29T06:48:47.400Z,18.52
2016-08-29T06:49:47.383Z,18.58
2016-08-29T06:50:46.665Z,18.61
2016-08-29T06:51:46.657Z,18.59
2016-08-29T06:52:46.657Z,18.59
2016-08-29T06:53:46.644Z,18.52
2016-08-29T06:54:47.356Z,18.57
2016-08-29T06:55:46.640Z,18.52
2016-08-29T06:56:47.322Z,18.4
2016-08-29T06:57:47.325Z,18.43
2016-08-29T06:58:47.309Z,18.47
2016-08-29T06:59:46.596Z,18.4
2016-08-29T07:00:48.013Z,18.39
2016-08-29T07:01:46.576Z,18.33
2016-08-29T07:02:46.561Z,18.27
2016-08-29T07:03:46.553Z,18.21
2016-08-29T07:04:46.560Z,18.21
2016-08-29T07:05:46.539Z,18.21
2016-08-29T07:06:46.530Z,18.13
2016-08-29T07:07:46.518Z,18.15
2016-08-29T07:08:47.266Z,18.18
2016-08-29T07:09:47.233Z,18.09
2016-08-29T07:10:46.493Z,18.17
2016-08-29T07:11:46.482Z,18.13
2016-08-29T07:12:47.907Z,18.15
2016-08-29T07:13:46.468Z,18.17
2016-08-29T07:14:47.179Z,18.07
2016-08-29T07:15:46.460Z,18.04
2016-08-29T07:16:46.444Z,18.09
2016-08-29T07:17:47.148Z,18.09
2016-08-29T07:18:46.432Z,18.06
2016-08-29T07:19:47.130Z,18.06
2016-08-29T07:20:46.412Z,18.15
2016-08-29T07:21:46.406Z,18.13
2016-08-29T07:22:47.103Z,18.09
2016-08-29T07:23:46.402Z,18.15
2016-08-29T07:24:47.086Z,18.09
2016-08-29T07:25:47.085Z,18.07
2016-08-29T07:26:46.366Z,18.12
2016-08-29T07:27:46.350Z,18.19
2016-08-29T07:28:46.344Z,18.13
2016-08-29T07:29:46.334Z,18.12
2016-08-29T07:30:46.326Z,18.09
2016-08-29T07:31:46.320Z,18.22
2016-08-29T07:32:46.313Z,18.18
2016-08-29T07:33:47.029Z,18.17
2016-08-29T07:34:46.288Z,18.13
2016-08-29T07:35:46.282Z,18.04
2016-08-29T07:36:46.269Z,18.18
2016-08-29T07:37:46.290Z,18.12
2016-08-29T07:38:46.255Z,18.15
2016-08-29T07:39:46.250Z,18.12
2016-08-29T07:40:47.018Z,18.15
2016-08-29T07:41:47.833Z,18.19
2016-08-29T07:42:46.947Z,18.21
2016-08-29T07:43:47.040Z,18.22
2016-08-29T07:44:46.201Z,18.28
2016-08-29T07:45:46.202Z,18.22
2016-08-29T07:46:46.208Z,18.36
2016-08-29T07:47:47.112Z,18.34
2016-08-29T07:48:46.878Z,18.4
2016-08-29T07:49:46.161Z,18.46
2016-08-29T07:50:46.184Z,18.4
2016-08-29T07:51:46.155Z,18.43
2016-08-29T07:52:46.140Z,18.46
2016-08-29T07:53:46.840Z,18.5
2016-08-29T07:54:46.130Z,18.49
2016-08-29T07:55:46.125Z,18.5
2016-08-29T07:56:46.812Z,18.39
2016-08-29T07:57:46.130Z,18.5
2016-08-29T07:58:47.015Z,18.52
2016-08-29T07:59:46.079Z,18.59
2016-08-29T08:00:46.786Z,18.58
2016-08-29T08:01:46.975Z,18.55
2016-08-29T08:02:46.053Z,18.61
2016-08-29T08:03:46.045Z,18.62
2016-08-29T08:04:46.040Z,18.67
2016-08-29T08:05:47.453Z,18.59
2016-08-29T08:06:46.735Z,18.7
2016-08-29T08:07:46.022Z,18.8
2016-08-29T08:08:46.001Z,18.77
2016-08-29T08:09:45.997Z,18.82
2016-08-29T08:10:46.703Z,18.86
2016-08-29T08:11:46.690Z,18.79
2016-08-29T08:12:45.986Z,18.86
2016-08-29T08:13:45.966Z,18.92
2016-08-29T08:14:46.664Z,18.86
2016-08-29T08:15:46.670Z,18.86
2016-08-29T08:16:45.947Z,18.8
2016-08-29T08:17:46.677Z,18.82
2016-08-29T08:18:46.651Z,18.91
2016-08-29T08:19:46.626Z,18.87
2016-08-29T08:20:45.906Z,18.95
2016-08-29T08:21:45.917Z,18.82
2016-08-29T08:22:46.611Z,18.98
2016-08-29T08:23:45.903Z,18.9
2016-08-29T08:24:45.881Z,18.97
2016-08-29T08:25:47.318Z,18.92
2016-08-29T08:26:45.885Z,18.98
2016-08-29T08:27:45.858Z,19.01
2016-08-29T08:28:46.574Z,19.13
2016-08-29T08:29:46.550Z,19.24
2016-08-29T08:30:46.540Z,19.23
2016-08-29T08:31:46.534Z,19.23
2016-08-29T08:32:45.829Z,19.32
2016-08-29T08:33:46.526Z,19.31
2016-08-29T08:34:45.816Z,19.32
2016-08-29T08:35:45.815Z,19.32
2016-08-29T08:36:45.794Z,19.35
2016-08-29T08:37:45.779Z,19.4
2016-08-29T08:38:45.779Z,19.4
2016-08-29T08:39:45.815Z,19.48
2016-08-29T08:40:45.786Z,19.5
2016-08-29T08:41:45.766Z,19.53
2016-08-29T08:42:45.748Z,19.57
2016-08-29T08:43:45.734Z,19.7
2016-08-29T08:44:45.732Z,19.86
2016-08-29T08:45:46.452Z,19.86
2016-08-29T08:46:45.719Z,19.91
2016-08-29T08:47:45.727Z,19.97
2016-08-29T08:48:45.709Z,20
2016-08-29T08:49:45.712Z,19.95
2016-08-29T08:50:45.695Z,19.95
2016-08-29T08:51:45.682Z,20.03
2016-08-29T08:52:46.380Z,19.93
2016-08-29T08:53:46.381Z,19.91
2016-08-29T08:54:46.368Z,19.97
2016-08-29T08:55:45.655Z,19.93
2016-08-29T08:56:45.644Z,19.91
2016-08-29T08:57:46.350Z,19.75
2016-08-29T08:58:46.350Z,19.8
2016-08-29T08:59:46.331Z,19.79
2016-08-29T09:00:45.634Z,19.73
2016-08-29T09:01:45.610Z,19.8
2016-08-29T09:02:46.316Z,20.02
2016-08-29T09:03:45.595Z,19.95
2016-08-29T09:04:46.306Z,20
2016-08-29T09:05:46.303Z,20.06
2016-08-29T09:06:45.581Z,20.1
2016-08-29T09:07:45.568Z,20.13
2016-08-29T09:08:46.265Z,20.08
2016-08-29T09:09:46.314Z,20.06
2016-08-29T09:10:45.549Z,20.08
2016-08-29T09:11:46.244Z,20.13
2016-08-29T09:12:45.540Z,20.27
2016-08-29T09:13:45.534Z,20.27
2016-08-29T09:14:45.523Z,20.35
2016-08-29T09:15:46.224Z,20.42
2016-08-29T09:16:45.520Z,20.42
2016-08-29T09:17:45.502Z,20.43
2016-08-29T09:18:45.491Z,20.5
2016-08-29T09:19:45.486Z,20.49
2016-08-29T09:20:45.503Z,20.49
2016-08-29T09:21:45.475Z,20.46
2016-08-29T09:22:46.183Z,20.39
2016-08-29T09:23:45.460Z,20.39
2016-08-29T09:24:45.452Z,20.39
2016-08-29T09:25:46.168Z,20.34
2016-08-29T09:26:46.152Z,20.25
2016-08-29T09:27:46.148Z,20.3
2016-08-29T09:28:45.430Z,20.31
2016-08-29T09:29:45.423Z,20.28
2016-08-29T09:30:45.424Z,20.25
2016-08-29T09:31:45.415Z,20.43
2016-08-29T09:32:45.407Z,20.3
2016-08-29T09:33:45.400Z,20.3
2016-08-29T09:34:45.402Z,20.27
2016-08-29T09:35:45.384Z,20.28
2016-08-29T09:36:45.379Z,20.2
2016-08-29T09:37:45.379Z,20.25
2016-08-29T09:38:45.367Z,20.33
2016-08-29T09:39:45.352Z,20.43
2016-08-29T09:40:45.346Z,20.5
2016-08-29T09:41:46.048Z,20.56
2016-08-29T09:42:45.331Z,20.59
2016-08-29T09:43:45.329Z,20.69
2016-08-29T09:44:45.323Z,20.8
2016-08-29T09:45:46.025Z,20.76
2016-08-29T09:46:45.315Z,20.8
2016-08-29T09:47:45.303Z,20.9
2016-08-29T09:48:45.294Z,20.84
2016-08-29T09:49:45.297Z,20.93
2016-08-29T09:50:45.287Z,20.86
2016-08-29T09:51:45.273Z,20.87
2016-08-29T09:52:45.267Z,20.87
2016-08-29T09:53:45.266Z,20.91
2016-08-29T09:54:45.257Z,20.95
2016-08-29T09:55:45.963Z,20.98
2016-08-29T09:56:45.972Z,20.9
2016-08-29T09:57:45.249Z,20.81
2016-08-29T09:58:45.246Z,20.84
2016-08-29T09:59:45.227Z,20.96
2016-08-29T10:00:45.937Z,20.93
2016-08-29T10:01:45.432Z,21.02
2016-08-29T10:02:45.208Z,20.81
2016-08-29T10:03:45.922Z,20.9
2016-08-29T10:04:45.901Z,20.95
2016-08-29T10:05:45.190Z,21.06
2016-08-29T10:06:45.186Z,21.24
2016-08-29T10:07:45.172Z,21.24
2016-08-29T10:08:45.880Z,21.27
2016-08-29T10:09:45.880Z,21.34
2016-08-29T10:10:45.170Z,21.35
2016-08-29T10:11:45.869Z,21.3
2016-08-29T10:12:45.147Z,21.34
2016-08-29T10:13:45.146Z,21.42
2016-08-29T10:14:45.148Z,21.38
2016-08-29T10:15:45.135Z,21.5
2016-08-29T10:16:45.121Z,21.29
2016-08-29T10:17:45.825Z,21.34
2016-08-29T10:18:45.111Z,21.38
2016-08-29T10:19:45.114Z,21.34
2016-08-29T10:20:45.101Z,21.29
2016-08-29T10:21:45.804Z,21.41
2016-08-29T10:22:45.095Z,21.34
2016-08-29T10:23:45.791Z,21.39
2016-08-29T10:24:45.079Z,21.42
2016-08-29T10:25:45.068Z,21.39
2016-08-29T10:26:45.069Z,21.56
2016-08-29T10:27:45.060Z,21.74
2016-08-29T10:28:45.053Z,21.78
2016-08-29T10:29:45.757Z,21.88
2016-08-29T10:30:45.043Z,21.94
2016-08-29T10:31:45.763Z,21.9
2016-08-29T10:32:45.081Z,21.92
2016-08-29T10:33:45.074Z,21.91
2016-08-29T10:34:45.023Z,21.92
2016-08-29T10:35:46.526Z,21.91
2016-08-29T10:36:45.007Z,21.97
2016-08-29T10:37:45.712Z,21.9
2016-08-29T10:38:45.007Z,21.88
2016-08-29T10:39:44.995Z,21.92
2016-08-29T10:40:45.000Z,21.95
2016-08-29T10:41:44.984Z,21.94
2016-08-29T10:42:45.690Z,21.94
2016-08-29T10:43:44.970Z,21.99
2016-08-29T10:44:45.671Z,22.04
2016-08-29T10:45:44.955Z,22.06
2016-08-29T10:46:44.951Z,22.2
2016-08-29T10:47:44.946Z,22.32
2016-08-29T10:48:44.947Z,22.37
2016-08-29T10:49:44.934Z,22.35
2016-08-29T10:50:44.930Z,22.32
2016-08-29T10:51:44.929Z,22.46
2016-08-29T10:52:44.931Z,22.49
2016-08-29T10:53:44.909Z,22.46
2016-08-29T10:54:44.909Z,22.47
2016-08-29T10:55:45.615Z,22.47
2016-08-29T10:56:44.898Z,22.5
2016-08-29T10:57:44.906Z,22.6
2016-08-29T10:58:44.899Z,22.69
2016-08-29T10:59:44.889Z,22.78
2016-08-29T11:00:45.292Z,22.72
2016-08-29T11:01:44.877Z,22.84
2016-08-29T11:02:45.616Z,22.71
2016-08-29T11:03:45.569Z,22.74
2016-08-29T11:04:45.581Z,22.92
2016-08-29T11:05:44.880Z,22.92
2016-08-29T11:06:44.879Z,22.96
2016-08-29T11:07:44.855Z,22.97
2016-08-29T11:08:44.844Z,22.97
2016-08-29T11:09:44.833Z,23.17
2016-08-29T11:10:44.828Z,23.11
2016-08-29T11:11:46.257Z,23.08
2016-08-29T11:12:45.528Z,23.02
2016-08-29T11:13:44.816Z,23.01
2016-08-29T11:14:45.530Z,22.92
2016-08-29T11:15:46.216Z,22.92
2016-08-29T11:16:45.506Z,22.92
2016-08-29T11:17:45.512Z,22.82
2016-08-29T11:18:45.506Z,22.77
2016-08-29T11:19:44.779Z,22.72
2016-08-29T11:20:45.497Z,22.69
2016-08-29T11:21:45.483Z,22.6
2016-08-29T11:22:44.769Z,22.41
2016-08-29T11:23:44.764Z,22.5
2016-08-29T11:24:44.815Z,22.32
2016-08-29T11:25:45.462Z,22.2
2016-08-29T11:26:44.754Z,22.16
2016-08-29T11:27:44.742Z,22.17
2016-08-29T11:28:45.501Z,22.07
2016-08-29T11:29:44.740Z,22.12
2016-08-29T11:30:44.726Z,22.04
2016-08-29T11:31:45.434Z,21.98
2016-08-29T11:32:44.713Z,21.92
2016-08-29T11:33:44.709Z,22.02
2016-08-29T11:34:44.704Z,22.02
2016-08-29T11:35:44.697Z,22.06
2016-08-29T11:36:44.691Z,22.1
2016-08-29T11:37:45.391Z,22.23
2016-08-29T11:38:44.679Z,22.23
2016-08-29T11:39:44.678Z,22.28
2016-08-29T11:40:44.667Z,22.37
2016-08-29T11:41:44.665Z,22.44
2016-08-29T11:42:44.658Z,22.54
2016-08-29T11:43:45.390Z,22.69
2016-08-29T11:44:44.643Z,22.65
2016-08-29T11:45:45.353Z,22.46
2016-08-29T11:46:44.647Z,22.47
2016-08-29T11:47:45.338Z,22.37
2016-08-29T11:48:44.625Z,22.29
2016-08-29T11:49:45.324Z,22.32
2016-08-29T11:50:44.614Z,22.34
2016-08-29T11:51:44.608Z,22.32
2016-08-29T11:52:44.603Z,22.35
2016-08-29T11:53:45.311Z,22.39
2016-08-29T11:54:44.591Z,22.38
2016-08-29T11:55:45.287Z,22.37
2016-08-29T11:56:44.579Z,22.46
2016-08-29T11:57:44.570Z,22.6
2016-08-29T11:58:44.573Z,22.59
2016-08-29T11:59:44.558Z,22.65
2016-08-29T12:00:44.557Z,22.8
2016-08-29T12:01:44.957Z,23.27
2016-08-29T12:02:44.553Z,23.43
2016-08-29T12:03:44.537Z,23.55
2016-08-29T12:04:44.535Z,23.75
2016-08-29T12:05:44.533Z,23.85
2016-08-29T12:06:44.526Z,23.83
2016-08-29T12:07:44.523Z,23.85
2016-08-29T12:08:45.222Z,23.85
2016-08-29T12:09:44.509Z,23.68
2016-08-29T12:10:44.510Z,23.62
2016-08-29T12:11:44.503Z,23.55
2016-08-29T12:12:44.502Z,23.45
2016-08-29T12:13:45.204Z,23.45
2016-08-29T12:14:44.493Z,23.38
2016-08-29T12:15:44.481Z,23.27
2016-08-29T12:16:44.482Z,23.27
2016-08-29T12:17:45.177Z,23.15
2016-08-29T12:18:44.466Z,23.14
2016-08-29T12:19:44.514Z,22.94
2016-08-29T12:20:44.459Z,22.99
2016-08-29T12:21:44.451Z,23.04
2016-08-29T12:22:45.162Z,23.15
2016-08-29T12:23:44.447Z,23.19
2016-08-29T12:24:45.150Z,23.31
2016-08-29T12:25:45.148Z,23.39
2016-08-29T12:26:44.429Z,23.39
2016-08-29T12:27:45.129Z,23.55
2016-08-29T12:28:44.416Z,23.64
2016-08-29T12:29:44.414Z,23.82
2016-08-29T12:30:44.408Z,23.89
2016-08-29T12:31:44.404Z,23.95
2016-08-29T12:32:44.414Z,23.83
2016-08-29T12:33:44.397Z,23.83
2016-08-29T12:34:45.099Z,23.77
2016-08-29T12:35:45.095Z,23.72
2016-08-29T12:36:44.381Z,23.68
2016-08-29T12:37:44.383Z,23.72
2016-08-29T12:38:44.407Z,23.75
2016-08-29T12:39:44.368Z,23.71
2016-08-29T12:40:44.361Z,23.72
2016-08-29T12:41:44.363Z,23.77
2016-08-29T12:42:44.369Z,23.97
2016-08-29T12:43:44.344Z,24.05
2016-08-29T12:44:44.348Z,24
2016-08-29T12:45:44.339Z,24.02
2016-08-29T12:46:45.037Z,24.04
2016-08-29T12:47:44.336Z,24.1
2016-08-29T12:48:44.373Z,24.04
2016-08-29T12:49:44.316Z,24.05
2016-08-29T12:50:44.325Z,23.98
2016-08-29T12:51:44.308Z,24.02
2016-08-29T12:52:44.302Z,24.04
2016-08-29T12:53:44.309Z,24.1
2016-08-29T12:54:44.297Z,24.14
2016-08-29T12:55:44.298Z,23.7